Airfield :
LOGIN :

Register | Disclaimer

   EN    FR    IT 

 










Legend :    VFR   Marginal VFR   IFR   Intensive IFR   Very Intensive IFR
Visi :
Ceiling :
>= 8 km
>= 3000ft
5 to 8 km
1000 to 3000 ft
1500m to 5 km
500 to 1000 ft
800 to 1500m
200 to 500 ft
< 800m
< 200 ft
Symbols :   Thunderstorms  Fog  Heavy snow  Heavy precipitations  Wind > 20 kt
SIGMETs :     Misc.  Thunderstorms  Icing  Turbulence  Mountain Waves  Volcanic Ashes






- Airport Elevation : 230 ft


ETHB - Buckeburg Army

CURRENT METAR :
  • 021128Z 17007KT 8000 FEW009 OVC023 04/02 Q1017 WHT WHT TEMPO GRN

EXPIRED METARs :
  • 021120Z 16007KT 7000 FEW006 SCT010 OVC024 04/02 Q1017 WHT WHT TEMPO GRN
  • 021043Z 15005KT 6000 FEW006 SCT010 OVC024 04/02 Q1018 WHT GRN TEMPO WHT
  • 021020Z 12003KT 6000 FEW006 BKN010 OVC024 04/02 Q1018 GRN GRN TEMPO YLO
  • 021008Z 15003KT 5000 BR FEW006 BKN010 OVC022 04/02 Q1018 GRN GRN TEMPO YLO
  • 020920Z 05003KT 4800 BR FEW004 BKN008 OVC018 03/02 Q1019 GRN GRN

TAF COR TAF ETHB
Valid from the 02 at 12:00 until the 02 at 21:00 UTC


021113Z 0212/0221 16005KT 7000 NSW SCT008 BKN022
TEMPO 0212/0214 14004KT 5000 BR FEW006 BKN012
TEMPO 0217/0221 15004KT 4000 BR BKN007 BKN010



MET'MAP, your aeronautical weather chart ! - Copyright ORBIFLY December 2007 - Disclaimer

ORBIFLY MET'MAP TEAM :

Programming & Development : Alexandra Zaïnal
Concept & original design : Baudouin d'Aumeries
Assistance for programming : Marc-Olivier Méhu
Technical & hardware support : Manuel Goepfert

Contact : metmap@orbifly.com




SOURCES & CREDITS :

   NOAA